Time,TemperatureF,DewpointF,PressureIn,WindDirection,WindDirectionDegrees,WindSpeedMPH,WindSpeedGustMPH,Humidity,HourlyPrecipIn,Conditions,Clouds,dailyrainin,SoftwareType,DateUTC
2013-04-16 00:00:00,61.0,59.0,30.17,East,83,0.0,0.0,93,0.00,,,0.07,WeatherDisplay:10.37,2013-04-16 04:00:00,
2013-04-16 00:01:00,61.0,59.0,30.17,East,83,0.0,0.0,93,0.00,RA,,0.00,WeatherDisplay:10.37,2013-04-16 04:01:00,
2013-04-16 00:06:00,61.0,59.0,30.17,East,83,2.3,2.3,93,0.00,RA,,0.00,WeatherDisplay:10.37,2013-04-16 04:06:00,
2013-04-16 00:12:00,61.0,59.0,30.17,East,83,3.5,3.5,93,0.00,,,0.00,WeatherDisplay:10.37,2013-04-16 04:12:00,
2013-04-16 00:17:00,60.9,58.9,30.17,East,82,4.6,4.6,93,0.00,,,0.00,WeatherDisplay:10.37,2013-04-16 04:17:00,
2013-04-16 00:22:00,60.9,58.9,30.17,East,82,3.5,3.5,93,0.00,,,0.00,WeatherDisplay:10.37,2013-04-16 04:22:00,
2013-04-16 00:27:00,60.8,58.8,30.17,East,82,1.2,0.0,93,0.00,,,0.00,WeatherDisplay:10.37,2013-04-16 04:27:00,
2013-04-16 00:32:00,60.6,58.6,30.17,East,81,1.0,1.0,93,0.00,,,0.00,WeatherDisplay:10.37,2013-04-16 04:32:00,
2013-04-16 00:37:00,60.4,58.4,30.17,East,82,3.5,3.5,93,0.00,,,0.00,WeatherDisplay:10.37,2013-04-16 04:37:00,
2013-04-16 00:42:00,60.3,58.3,30.17,East,82,3.5,3.5,93,0.00,,,0.00,WeatherDisplay:10.37,2013-04-16 04:42:00,
2013-04-16 00:47:00,60.1,58.1,30.17,East,82,0.0,0.0,93,0.00,,,0.00,WeatherDisplay:10.37,2013-04-16 04:47:00,
2013-04-16 00:52:00,59.9,58.2,30.17,East,81,3.5,3.5,94,0.00,,,0.00,WeatherDisplay:10.37,2013-04-16 04:52:00,
2013-04-16 00:57:00,59.7,58.0,30.17,East,81,3.5,3.5,94,0.00,,,0.00,WeatherDisplay:10.37,2013-04-16 04:57:00,
2013-04-16 01:02:00,59.7,58.0,30.17,East,81,0.0,0.0,94,0.00,,,0.00,WeatherDisplay:10.37,2013-04-16 05:02:00,
2013-04-16 01:07:00,59.2,57.5,30.17,East,80,0.0,0.0,94,0.00,,,0.00,WeatherDisplay:10.37,2013-04-16 05:07:00,
2013-04-16 01:12:00,58.9,57.2,30.17,East,81,0.0,0.0,94,0.00,,,0.00,WeatherDisplay:10.37,2013-04-16 05:12:00,
2013-04-16 01:17:00,58.8,57.4,30.17,East,81,2.3,0.0,95,0.00,,,0.00,WeatherDisplay:10.37,2013-04-16 05:17:00,
2013-04-16 01:22:00,58.6,56.9,30.17,East,80,2.3,0.0,94,0.00,,,0.00,WeatherDisplay:10.37,2013-04-16 05:22:00,
2013-04-16 01:27:00,58.2,56.8,30.17,East,81,0.0,0.0,95,0.00,,,0.00,WeatherDisplay:10.37,2013-04-16 05:27:00,
2013-04-16 01:32:00,58.0,56.6,30.17,East,81,0.0,0.0,95,0.00,,,0.00,WeatherDisplay:10.37,2013-04-16 05:32:00,
2013-04-16 01:37:00,58.0,56.6,30.17,East,81,1.0,0.0,95,0.00,,,0.00,WeatherDisplay:10.37,2013-04-16 05:37:00,
2013-04-16 01:42:00,57.5,56.1,30.17,East,81,0.0,0.0,95,0.00,,,0.00,WeatherDisplay:10.37,2013-04-16 05:42:00,
2013-04-16 01:47:00,57.3,55.9,30.17,East,81,0.0,0.0,95,0.00,,,0.00,WeatherDisplay:10.37,2013-04-16 05:47:00,
2013-04-16 01:52:00,57.3,55.9,30.17,East,80,0.0,0.0,95,0.00,,,0.00,WeatherDisplay:10.37,2013-04-16 05:52:00,
2013-04-16 01:57:00,57.1,56.0,30.17,East,81,2.3,0.0,96,0.00,,,0.00,WeatherDisplay:10.37,2013-04-16 05:57:00,
2013-04-16 02:02:00,57.3,56.2,30.17,East,81,1.2,0.0,96,0.00,,,0.00,WeatherDisplay:10.37,2013-04-16 06:02:00,
2013-04-16 02:07:00,57.0,55.9,30.17,East,81,0.0,0.0,96,0.00,,,0.00,WeatherDisplay:10.37,2013-04-16 06:07:00,
2013-04-16 02:12:00,56.9,55.8,30.17,East,81,1.2,0.0,96,0.00,,,0.00,WeatherDisplay:10.37,2013-04-16 06:12:00,
2013-04-16 02:17:00,56.8,55.7,30.17,East,81,0.0,0.0,96,0.00,,,0.00,WeatherDisplay:10.37,2013-04-16 06:17:00,
2013-04-16 02:22:00,57.0,55.9,30.17,East,80,0.0,0.0,96,0.00,,,0.00,WeatherDisplay:10.37,2013-04-16 06:22:00,
2013-04-16 02:27:00,56.9,55.8,30.17,East,81,0.0,0.0,96,0.00,,,0.00,WeatherDisplay:10.37,2013-04-16 06:27:00,
2013-04-16 02:32:00,56.9,55.8,30.17,East,80,0.0,0.0,96,0.00,,,0.00,WeatherDisplay:10.37,2013-04-16 06:32:00,
2013-04-16 02:37:00,56.7,55.6,30.17,East,81,0.0,0.0,96,0.00,,,0.00,WeatherDisplay:10.37,2013-04-16 06:37:00,
2013-04-16 02:42:00,56.6,55.5,30.17,East,81,0.0,0.0,96,0.00,,,0.00,WeatherDisplay:10.37,2013-04-16 06:42:00,
2013-04-16 02:47:00,56.5,55.4,30.17,East,81,0.0,0.0,96,0.00,,,0.00,WeatherDisplay:10.37,2013-04-16 06:47:00,
2013-04-16 02:52:00,56.3,55.2,30.17,East,81,0.0,0.0,96,0.00,,,0.00,WeatherDisplay:10.37,2013-04-16 06:52:00,
2013-04-16 02:57:00,55.9,54.8,30.17,East,81,0.0,0.0,96,0.00,,,0.00,WeatherDisplay:10.37,2013-04-16 06:57:00,
2013-04-16 03:02:00,56.0,54.9,30.17,East,80,0.0,0.0,96,0.00,,,0.00,WeatherDisplay:10.37,2013-04-16 07:02:00,
2013-04-16 03:07:00,55.8,55.2,30.17,East,81,0.0,0.0,98,0.00,,,0.00,WeatherDisplay:10.37,2013-04-16 07:07:00,
2013-04-16 03:12:00,55.7,55.1,30.17,East,81,0.0,0.0,98,0.00,,,0.00,WeatherDisplay:10.37,2013-04-16 07:12:00,
2013-04-16 03:17:00,55.6,55.0,30.17,East,81,0.0,0.0,98,0.00,,,0.00,WeatherDisplay:10.37,2013-04-16 07:17:00,
2013-04-16 03:22:00,55.5,54.9,30.17,East,80,0.0,0.0,98,0.00,,,0.00,WeatherDisplay:10.37,2013-04-16 07:22:00,
2013-04-16 03:27:00,55.5,54.9,30.17,East,81,0.0,0.0,98,0.00,,,0.00,WeatherDisplay:10.37,2013-04-16 07:27:00,
2013-04-16 03:32:00,55.3,54.7,30.17,East,80,0.0,0.0,98,0.00,,,0.00,WeatherDisplay:10.37,2013-04-16 07:32:00,
2013-04-16 03:37:00,55.2,54.6,30.17,East,81,1.2,0.0,98,0.00,,,0.00,WeatherDisplay:10.37,2013-04-16 07:37:00,
2013-04-16 03:42:00,55.3,54.7,30.17,East,80,0.0,0.0,98,0.00,,,0.00,WeatherDisplay:10.37,2013-04-16 07:42:00,
2013-04-16 03:47:00,55.4,54.8,30.17,East,81,0.0,0.0,98,0.00,,,0.00,WeatherDisplay:10.37,2013-04-16 07:47:00,
2013-04-16 03:52:00,55.4,54.8,30.17,East,81,2.0,0.0,98,0.00,,,0.00,WeatherDisplay:10.37,2013-04-16 07:52:00,
2013-04-16 03:57:00,56.3,55.7,30.17,East,81,0.0,0.2,98,0.00,,,0.00,WeatherDisplay:10.37,2013-04-16 07:57:00,
2013-04-16 04:03:00,56.6,56.0,30.17,East,80,0.0,0.0,98,0.00,,,0.00,WeatherDisplay:10.37,2013-04-16 08:03:00,
2013-04-16 04:08:00,56.5,55.9,30.17,East,81,1.0,1.0,98,0.00,,,0.00,WeatherDisplay:10.37,2013-04-16 08:08:00,
2013-04-16 04:13:00,57.1,56.5,30.17,East,80,0.0,0.0,98,0.00,,,0.00,WeatherDisplay:10.37,2013-04-16 08:13:00,
2013-04-16 04:18:00,57.3,56.7,30.17,East,80,0.0,0.0,98,0.00,,,0.00,WeatherDisplay:10.37,2013-04-16 08:18:00,
2013-04-16 04:23:00,57.5,56.9,30.17,East,81,0.0,0.0,98,0.00,,,0.00,WeatherDisplay:10.37,2013-04-16 08:23:00,
2013-04-16 04:28:00,57.6,57.3,30.17,East,81,0.0,0.0,99,0.00,,,0.00,WeatherDisplay:10.37,2013-04-16 08:28:00,
2013-04-16 04:33:00,57.7,57.4,30.17,East,81,0.0,0.0,99,0.00,,,0.00,WeatherDisplay:10.37,2013-04-16 08:33:00,
2013-04-16 04:38:00,57.8,57.5,30.17,East,80,0.0,0.0,99,0.00,,,0.00,WeatherDisplay:10.37,2013-04-16 08:38:00,
2013-04-16 04:43:00,57.7,57.4,30.17,East,80,1.2,0.0,99,0.00,,,0.00,WeatherDisplay:10.37,2013-04-16 08:43:00,
2013-04-16 04:48:00,57.8,57.5,30.17,East,80,0.0,0.0,99,0.00,,,0.00,WeatherDisplay:10.37,2013-04-16 08:48:00,
2013-04-16 04:53:00,57.8,57.2,30.17,East,81,0.0,0.0,98,0.00,,,0.00,WeatherDisplay:10.37,2013-04-16 08:53:00,
2013-04-16 04:58:00,57.6,57.0,30.17,East,80,0.0,0.0,98,0.00,,,0.00,WeatherDisplay:10.37,2013-04-16 08:58:00,
2013-04-16 05:03:00,57.4,56.8,30.17,East,81,0.0,0.0,98,0.00,,,0.00,WeatherDisplay:10.37,2013-04-16 09:03:00,
2013-04-16 05:09:00,57.1,56.5,30.17,East,81,0.0,0.0,98,0.00,,,0.00,WeatherDisplay:10.37,2013-04-16 09:09:00,
2013-04-16 05:14:00,56.8,56.2,30.17,East,81,2.3,0.0,98,0.00,,,0.00,WeatherDisplay:10.37,2013-04-16 09:14:00,
2013-04-16 05:19:00,57.2,56.6,30.17,East,83,4.6,4.6,98,0.00,,,0.00,WeatherDisplay:10.37,2013-04-16 09:19:00,
2013-04-16 05:24:00,57.5,56.9,30.17,East,83,3.5,3.5,98,0.00,,,0.00,WeatherDisplay:10.37,2013-04-16 09:24:00,
2013-04-16 05:29:00,57.8,57.5,30.17,ESE,109,3.5,3.5,99,0.00,,,0.00,WeatherDisplay:10.37,2013-04-16 09:29:00,
2013-04-16 05:34:00,57.9,57.6,30.17,ESE,115,2.0,2.0,99,0.00,,,0.00,WeatherDisplay:10.37,2013-04-16 09:34:00,
2013-04-16 05:39:00,58.0,57.7,30.17,ESE,119,5.0,5.0,99,0.00,,,0.00,WeatherDisplay:10.37,2013-04-16 09:39:00,
2013-04-16 05:44:00,58.1,57.8,30.17,ESE,111,3.5,3.5,99,0.00,,,0.00,WeatherDisplay:10.37,2013-04-16 09:44:00,
2013-04-16 05:49:00,58.1,57.8,30.17,ESE,111,0.0,0.0,99,0.00,,,0.00,WeatherDisplay:10.37,2013-04-16 09:49:00,
2013-04-16 05:54:00,58.2,57.9,30.18,ESE,123,4.6,4.6,99,0.00,,,0.00,WeatherDisplay:10.37,2013-04-16 09:54:00,
2013-04-16 05:59:00,58.2,57.9,30.18,ESE,122,2.3,0.0,99,0.00,,,0.00,WeatherDisplay:10.37,2013-04-16 09:59:00,
2013-04-16 06:04:00,58.2,57.9,30.18,East,101,5.8,5.8,99,0.00,,,0.00,WeatherDisplay:10.37,2013-04-16 10:04:00,
2013-04-16 06:09:00,58.1,57.8,30.18,ESE,117,3.5,3.5,99,0.00,,,0.00,WeatherDisplay:10.37,2013-04-16 10:09:00,
2013-04-16 06:14:00,58.0,57.7,30.19,ESE,118,4.6,4.6,99,0.00,,,0.00,WeatherDisplay:10.37,2013-04-16 10:14:00,
2013-04-16 06:19:00,58.0,57.7,30.19,ESE,118,2.3,2.3,99,0.00,,,0.00,WeatherDisplay:10.37,2013-04-16 10:19:00,
2013-04-16 06:24:00,58.0,57.7,30.19,ESE,118,2.3,0.0,99,0.00,,,0.00,WeatherDisplay:10.37,2013-04-16 10:24:00,
2013-04-16 06:29:00,58.0,57.7,30.19,ESE,118,2.0,2.0,99,0.00,,,0.00,WeatherDisplay:10.37,2013-04-16 10:29:00,
2013-04-16 06:34:00,57.9,57.6,30.19,ESE,119,4.6,4.6,99,0.00,,,0.00,WeatherDisplay:10.37,2013-04-16 10:34:00,
2013-04-16 06:39:00,57.9,57.6,30.19,ESE,118,2.0,2.0,99,0.00,,,0.00,WeatherDisplay:10.37,2013-04-16 10:39:00,
2013-04-16 06:44:00,57.9,57.6,30.19,ESE,118,0.0,0.0,99,0.00,,,0.00,WeatherDisplay:10.37,2013-04-16 10:44:00,
2013-04-16 06:49:00,58.0,57.7,30.19,ESE,118,0.0,0.0,99,0.00,,,0.00,WeatherDisplay:10.37,2013-04-16 10:49:00,
2013-04-16 06:54:00,58.0,57.7,30.19,ESE,118,0.0,0.0,99,0.00,,,0.00,WeatherDisplay:10.37,2013-04-16 10:54:00,
2013-04-16 06:59:00,57.9,57.6,30.20,East,97,1.2,0.0,99,0.00,,,0.00,WeatherDisplay:10.37,2013-04-16 10:59:00,
2013-04-16 07:04:00,58.0,57.7,30.20,East,97,1.2,1.2,99,0.00,,,0.00,WeatherDisplay:10.37,2013-04-16 11:04:00,
2013-04-16 07:09:00,58.0,57.7,30.20,East,96,0.0,0.0,99,0.00,,,0.00,WeatherDisplay:10.37,2013-04-16 11:09:00,
2013-04-16 07:14:00,58.1,57.8,30.21,East,97,1.2,0.0,99,0.00,,,0.00,WeatherDisplay:10.37,2013-04-16 11:14:00,
2013-04-16 07:19:00,58.1,57.8,30.20,North,5,0.0,0.0,99,0.00,,,0.00,WeatherDisplay:10.37,2013-04-16 11:19:00,
2013-04-16 07:24:00,58.2,57.9,30.21,NNE,15,3.5,3.5,99,0.00,,,0.00,WeatherDisplay:10.37,2013-04-16 11:24:00,
2013-04-16 07:29:00,58.2,57.9,30.21,NNE,16,0.0,0.0,99,0.00,,,0.00,WeatherDisplay:10.37,2013-04-16 11:29:00,
2013-04-16 07:34:00,58.3,58.0,30.21,NNE,32,3.5,3.5,99,0.00,,,0.00,WeatherDisplay:10.37,2013-04-16 11:34:00,
2013-04-16 07:40:00,58.5,58.2,30.21,NE,36,3.0,3.0,99,0.00,,,0.00,WeatherDisplay:10.37,2013-04-16 11:40:00,
2013-04-16 07:45:00,58.5,58.2,30.21,NE,44,3.5,3.5,99,0.00,,,0.00,WeatherDisplay:10.37,2013-04-16 11:45:00,
2013-04-16 07:50:00,58.7,58.4,30.22,NE,44,1.2,0.0,99,0.00,,,0.00,WeatherDisplay:10.37,2013-04-16 11:50:00,
2013-04-16 07:55:00,58.7,58.4,30.22,NE,44,3.5,3.5,99,0.00,,,0.00,WeatherDisplay:10.37,2013-04-16 11:55:00,
2013-04-16 08:00:00,58.8,58.5,30.22,NE,44,1.0,0.0,99,0.00,,,0.00,WeatherDisplay:10.37,2013-04-16 12:00:00,
2013-04-16 08:05:00,58.8,58.5,30.23,NE,44,0.0,0.0,99,0.00,,,0.00,WeatherDisplay:10.37,2013-04-16 12:05:00,
2013-04-16 08:10:00,59.0,58.7,30.22,NE,44,3.0,3.0,99,0.00,,,0.00,WeatherDisplay:10.37,2013-04-16 12:10:00,
2013-04-16 08:15:00,59.0,58.7,30.22,NE,44,2.0,2.0,99,0.00,,,0.00,WeatherDisplay:10.37,2013-04-16 12:15:00,
2013-04-16 08:20:00,58.9,58.6,30.22,SE,124,5.0,5.0,99,0.00,,,0.00,WeatherDisplay:10.37,2013-04-16 12:20:00,
2013-04-16 08:25:00,58.9,58.6,30.22,SE,136,3.5,3.5,99,0.00,,,0.00,WeatherDisplay:10.37,2013-04-16 12:25:00,
2013-04-16 08:30:00,58.9,58.6,30.22,SE,136,3.5,3.5,99,0.00,,,0.00,WeatherDisplay:10.37,2013-04-16 12:30:00,
2013-04-16 08:35:00,59.1,58.8,30.23,SE,136,3.5,3.5,99,0.00,,,0.00,WeatherDisplay:10.37,2013-04-16 12:35:00,
2013-04-16 08:40:00,59.1,58.8,30.23,SE,136,4.0,4.0,99,0.00,,,0.00,WeatherDisplay:10.37,2013-04-16 12:40:00,
2013-04-16 08:45:00,59.0,58.7,30.23,SE,136,3.5,3.5,99,0.00,,,0.00,WeatherDisplay:10.37,2013-04-16 12:45:00,
2013-04-16 08:50:00,59.0,58.7,30.23,SE,136,1.2,1.2,99,0.00,,,0.00,WeatherDisplay:10.37,2013-04-16 12:50:00,
2013-04-16 08:55:00,59.0,58.7,30.23,SE,136,3.5,0.0,99,0.00,,,0.00,WeatherDisplay:10.37,2013-04-16 12:55:00,
2013-04-16 09:00:00,59.0,58.7,30.23,SSW,210,3.5,3.5,99,0.00,,,0.00,WeatherDisplay:10.37,2013-04-16 13:00:00,
2013-04-16 09:05:00,59.3,59.0,30.23,SSW,211,0.0,0.0,99,0.00,,,0.00,WeatherDisplay:10.37,2013-04-16 13:05:00,
2013-04-16 09:10:00,59.3,59.0,30.24,SSW,211,3.5,0.0,99,0.00,,,0.00,WeatherDisplay:10.37,2013-04-16 13:10:00,
2013-04-16 09:15:00,59.4,59.1,30.24,SSW,211,3.5,3.5,99,0.00,,,0.00,WeatherDisplay:10.37,2013-04-16 13:15:00,
2013-04-16 09:20:00,59.2,58.9,30.24,SSW,211,1.2,1.2,99,0.00,,,0.00,WeatherDisplay:10.37,2013-04-16 13:20:00,
2013-04-16 09:25:00,59.2,58.9,30.24,SSW,211,3.5,3.5,99,0.00,,,0.00,WeatherDisplay:10.37,2013-04-16 13:25:00,
2013-04-16 09:30:00,59.3,59.0,30.24,SSW,211,3.5,3.5,99,0.00,,,0.00,WeatherDisplay:10.37,2013-04-16 13:30:00,
2013-04-16 09:35:00,59.4,59.1,30.24,SSW,211,3.5,3.5,99,0.00,,,0.00,WeatherDisplay:10.37,2013-04-16 13:35:00,
2013-04-16 09:40:00,59.6,59.3,30.24,SSW,211,0.0,0.0,99,0.00,,,0.00,WeatherDisplay:10.37,2013-04-16 13:40:00,
2013-04-16 09:45:00,59.7,59.4,30.24,SSW,211,0.0,0.0,99,0.00,,,0.00,WeatherDisplay:10.37,2013-04-16 13:45:00,
2013-04-16 09:50:00,59.7,59.4,30.24,SSW,211,0.0,0.0,99,0.00,,,0.00,WeatherDisplay:10.37,2013-04-16 13:50:00,
2013-04-16 09:55:00,59.7,59.4,30.25,SSW,210,0.0,0.0,99,0.00,,,0.00,WeatherDisplay:10.37,2013-04-16 13:55:00,
2013-04-16 10:00:00,59.7,59.4,30.25,SSW,211,2.0,2.0,99,0.00,,,0.00,WeatherDisplay:10.37,2013-04-16 14:00:00,
2013-04-16 10:05:00,59.7,59.4,30.25,SSW,210,0.0,0.0,99,0.00,,,0.00,WeatherDisplay:10.37,2013-04-16 14:05:00,
2013-04-16 10:10:00,59.7,59.4,30.25,SSW,211,0.0,0.0,99,0.00,,,0.00,WeatherDisplay:10.37,2013-04-16 14:10:00,
2013-04-16 10:15:00,60.1,59.8,30.25,SSW,211,0.0,0.0,99,0.00,,,0.00,WeatherDisplay:10.37,2013-04-16 14:15:00,
2013-04-16 10:20:00,60.0,59.7,30.25,SSW,211,1.2,0.0,99,0.00,,,0.00,WeatherDisplay:10.37,2013-04-16 14:20:00,
2013-04-16 10:25:00,60.0,59.7,30.25,SSW,211,1.2,0.0,99,0.00,,,0.00,WeatherDisplay:10.37,2013-04-16 14:25:00,
2013-04-16 10:30:00,60.2,59.9,30.26,SSW,210,1.2,0.0,99,0.00,,,0.00,WeatherDisplay:10.37,2013-04-16 14:30:00,
2013-04-16 10:35:00,60.4,60.1,30.26,SSW,211,0.0,0.0,99,0.00,,,0.00,WeatherDisplay:10.37,2013-04-16 14:35:00,
2013-04-16 10:40:00,60.5,60.2,30.26,SSW,206,0.0,0.0,99,0.00,,,0.00,WeatherDisplay:10.37,2013-04-16 14:40:00,
2013-04-16 10:45:00,60.6,60.3,30.26,SSW,206,1.2,0.0,99,0.00,,,0.00,WeatherDisplay:10.37,2013-04-16 14:45:00,
2013-04-16 10:50:00,60.7,60.4,30.26,SSW,206,0.0,0.0,99,0.00,,,0.00,WeatherDisplay:10.37,2013-04-16 14:50:00,
2013-04-16 10:55:00,60.7,60.4,30.26,SSW,207,0.0,0.0,99,0.00,,,0.00,WeatherDisplay:10.37,2013-04-16 14:55:00,
2013-04-16 11:00:00,61.0,60.4,30.26,SSW,206,2.3,2.3,98,0.00,,,0.00,WeatherDisplay:10.37,2013-04-16 15:00:00,
2013-04-16 11:05:00,61.3,60.7,30.26,SSW,207,1.2,0.0,98,0.00,,,0.00,WeatherDisplay:10.37,2013-04-16 15:05:00,
2013-04-16 11:10:00,61.6,60.4,30.26,SSW,206,0.0,0.0,96,0.00,,,0.00,WeatherDisplay:10.37,2013-04-16 15:10:00,
2013-04-16 11:15:00,62.1,60.9,30.26,SSW,207,0.0,0.0,96,0.00,,,0.00,WeatherDisplay:10.37,2013-04-16 15:15:00,
2013-04-16 11:20:00,62.4,60.9,30.26,SSW,206,1.0,0.0,95,0.00,,,0.00,WeatherDisplay:10.37,2013-04-16 15:20:00,
2013-04-16 11:25:00,62.4,60.7,30.26,North,11,3.5,3.5,94,0.00,,,0.00,WeatherDisplay:10.37,2013-04-16 15:25:00,
2013-04-16 11:30:00,62.9,61.1,30.26,North,11,0.0,0.0,94,0.00,,,0.00,WeatherDisplay:10.37,2013-04-16 15:30:00,
2013-04-16 11:35:00,62.8,60.7,30.26,North,11,1.2,1.2,93,0.00,,,0.00,WeatherDisplay:10.37,2013-04-16 15:35:00,
2013-04-16 11:40:00,63.0,60.6,30.26,North,10,0.0,0.0,92,0.00,,,0.00,WeatherDisplay:10.37,2013-04-16 15:40:00,
2013-04-16 11:45:00,63.3,60.9,30.26,North,355,2.0,2.0,92,0.00,,,0.00,WeatherDisplay:10.37,2013-04-16 15:45:00,
2013-04-16 11:50:00,63.3,60.9,30.26,North,355,1.2,0.0,92,0.00,,,0.00,WeatherDisplay:10.37,2013-04-16 15:50:00,
2013-04-16 11:55:00,63.4,60.7,30.26,North,355,0.0,0.0,91,0.00,,,0.00,WeatherDisplay:10.37,2013-04-16 15:55:00,
2013-04-16 12:00:00,64.0,61.3,30.26,North,355,0.0,0.0,91,0.00,,,0.00,WeatherDisplay:10.37,2013-04-16 16:00:00,
2013-04-16 12:06:00,63.9,60.6,30.26,North,355,2.0,2.0,89,0.00,,,0.00,WeatherDisplay:10.37,2013-04-16 16:06:00,
2013-04-16 12:11:00,63.8,60.5,30.26,North,355,3.5,3.5,89,0.00,,,0.00,WeatherDisplay:10.37,2013-04-16 16:11:00,
2013-04-16 12:16:00,63.7,60.1,30.26,North,355,0.0,0.0,88,0.00,,,0.00,WeatherDisplay:10.37,2013-04-16 16:16:00,
2013-04-16 12:22:00,63.8,60.2,30.26,North,355,2.3,2.3,88,0.00,,,0.00,WeatherDisplay:10.37,2013-04-16 16:22:00,
2013-04-16 12:27:00,63.7,60.1,30.26,North,355,0.0,0.0,88,0.00,,,0.00,WeatherDisplay:10.37,2013-04-16 16:27:00,
2013-04-16 12:32:00,64.0,60.4,30.26,North,355,0.0,0.0,88,0.00,,,0.00,WeatherDisplay:10.37,2013-04-16 16:32:00,
2013-04-16 12:37:00,64.1,60.5,30.26,North,355,1.2,0.0,88,0.00,,,0.00,WeatherDisplay:10.37,2013-04-16 16:37:00,
2013-04-16 12:42:00,64.0,60.4,30.26,North,355,0.0,0.0,88,0.00,,,0.00,WeatherDisplay:10.37,2013-04-16 16:42:00,
2013-04-16 12:47:00,64.1,60.2,30.26,North,360,3.0,3.0,87,0.00,,,0.00,WeatherDisplay:10.37,2013-04-16 16:47:00,
2013-04-16 12:52:00,64.5,60.9,30.25,North,355,0.0,0.0,88,0.00,,,0.00,WeatherDisplay:10.37,2013-04-16 16:52:00,
2013-04-16 12:57:00,64.8,61.2,30.25,North,355,3.0,3.0,88,0.00,,,0.00,WeatherDisplay:10.37,2013-04-16 16:57:00,
2013-04-16 13:02:00,65.1,60.8,30.25,North,360,2.3,2.3,86,0.00,,,0.00,WeatherDisplay:10.37,2013-04-16 17:02:00,
2013-04-16 13:07:00,66.0,61.7,30.25,North,360,3.5,0.0,86,0.00,,,0.00,WeatherDisplay:10.37,2013-04-16 17:07:00,
2013-04-16 13:13:00,66.7,61.7,30.25,NNE,21,3.5,3.5,84,0.00,,,0.00,WeatherDisplay:10.37,2013-04-16 17:13:00,
2013-04-16 13:18:00,66.8,61.8,30.25,SE,126,6.0,6.0,84,0.00,,,0.00,WeatherDisplay:10.37,2013-04-16 17:18:00,
2013-04-16 13:23:00,67.6,62.6,30.24,SE,136,5.8,5.8,84,0.00,,,0.00,WeatherDisplay:10.37,2013-04-16 17:23:00,
2013-04-16 13:28:00,67.4,61.0,30.24,ESE,114,3.5,3.5,80,0.00,,,0.00,WeatherDisplay:10.37,2013-04-16 17:28:00,
2013-04-16 13:33:00,68.2,62.1,30.24,ESE,114,4.0,4.0,81,0.00,,,0.00,WeatherDisplay:10.37,2013-04-16 17:33:00,
2013-04-16 13:38:00,68.8,62.7,30.24,South,184,7.0,7.0,81,0.00,,,0.00,WeatherDisplay:10.37,2013-04-16 17:38:00,
2013-04-16 13:43:00,68.7,62.3,30.24,SSW,196,4.6,4.6,80,0.00,,,0.00,WeatherDisplay:10.37,2013-04-16 17:43:00,
2013-04-16 13:48:00,68.7,61.6,30.23,SSW,196,1.0,1.0,78,0.00,,,0.00,WeatherDisplay:10.37,2013-04-16 17:48:00,
2013-04-16 13:53:00,69.5,62.7,30.23,SSW,198,5.0,5.0,79,0.00,,,0.00,WeatherDisplay:10.37,2013-04-16 17:53:00,
2013-04-16 13:58:00,70.1,62.6,30.23,South,170,4.6,4.6,77,0.00,,,0.00,WeatherDisplay:10.37,2013-04-16 17:58:00,
2013-04-16 14:03:00,69.7,62.2,30.23,SSE,163,4.0,4.0,77,0.00,,,0.00,WeatherDisplay:10.37,2013-04-16 18:03:00,
2013-04-16 14:08:00,69.4,61.9,30.23,SE,136,5.0,5.0,77,0.00,,,0.00,WeatherDisplay:10.37,2013-04-16 18:08:00,
2013-04-16 14:13:00,69.6,62.1,30.23,SE,125,3.5,3.5,77,0.00,,,0.00,WeatherDisplay:10.37,2013-04-16 18:13:00,
2013-04-16 14:18:00,70.1,62.6,30.22,SE,125,5.0,5.0,77,0.00,,,0.00,WeatherDisplay:10.37,2013-04-16 18:18:00,
2013-04-16 14:23:00,69.9,61.6,30.22,South,171,1.2,0.0,75,0.00,,,0.00,WeatherDisplay:10.37,2013-04-16 18:23:00,
2013-04-16 14:28:00,70.8,62.5,30.22,East,90,4.6,4.6,75,0.00,,,0.00,WeatherDisplay:10.37,2013-04-16 18:28:00,
2013-04-16 14:33:00,71.5,62.0,30.22,East,90,4.0,4.0,72,0.00,,,0.00,WeatherDisplay:10.37,2013-04-16 18:33:00,
2013-04-16 14:38:00,72.3,62.8,30.22,East,90,4.0,4.0,72,0.00,,,0.00,WeatherDisplay:10.37,2013-04-16 18:38:00,
2013-04-16 14:43:00,72.7,62.3,30.22,ENE,71,2.3,2.3,70,0.00,,,0.00,WeatherDisplay:10.37,2013-04-16 18:43:00,
2013-04-16 14:48:00,72.5,63.0,30.21,ENE,71,0.0,0.1,72,0.00,,,0.00,WeatherDisplay:10.37,2013-04-16 18:48:00,
2013-04-16 14:53:00,72.2,61.5,30.21,SSW,212,3.5,3.5,69,0.00,,,0.00,WeatherDisplay:10.37,2013-04-16 18:53:00,
2013-04-16 14:59:00,71.8,62.3,30.21,SE,126,4.6,4.6,72,0.00,,,0.00,WeatherDisplay:10.37,2013-04-16 18:59:00,
2013-04-16 15:04:00,72.0,62.5,30.20,ESE,111,3.5,3.5,72,0.00,,,0.00,WeatherDisplay:10.37,2013-04-16 19:04:00,
2013-04-16 15:09:00,73.3,61.7,30.20,ENE,64,3.5,3.5,67,0.00,,,0.00,WeatherDisplay:10.37,2013-04-16 19:09:00,
2013-04-16 15:14:00,72.6,62.7,30.20,ENE,65,3.5,0.0,71,0.00,,,0.00,WeatherDisplay:10.37,2013-04-16 19:14:00,
2013-04-16 15:19:00,74.0,62.8,30.20,South,182,5.0,5.0,68,0.00,,,0.00,WeatherDisplay:10.37,2013-04-16 19:19:00,
2013-04-16 15:24:00,73.5,61.9,30.19,South,182,1.2,1.2,67,0.00,,,0.00,WeatherDisplay:10.37,2013-04-16 19:24:00,
2013-04-16 15:29:00,73.1,61.5,30.19,SW,229,3.5,3.5,67,0.00,,,0.00,WeatherDisplay:10.37,2013-04-16 19:29:00,
2013-04-16 15:34:00,73.3,61.7,30.19,South,173,3.5,3.5,67,0.00,,,0.00,WeatherDisplay:10.37,2013-04-16 19:34:00,
2013-04-16 15:39:00,73.4,61.3,30.18,ESE,109,3.5,3.5,66,0.00,,,0.00,WeatherDisplay:10.37,2013-04-16 19:39:00,
2013-04-16 15:44:00,73.6,62.0,30.18,ESE,109,0.0,0.0,67,0.00,,,0.00,WeatherDisplay:10.37,2013-04-16 19:44:00,
2013-04-16 15:49:00,73.9,61.4,30.18,ESE,111,3.5,3.5,65,0.00,,,0.00,WeatherDisplay:10.37,2013-04-16 19:49:00,
2013-04-16 15:54:00,74.3,62.6,30.17,SE,141,6.0,6.0,67,0.00,,,0.00,WeatherDisplay:10.37,2013-04-16 19:54:00,
2013-04-16 15:59:00,74.1,61.1,30.17,SE,130,4.6,4.6,64,0.00,,,0.00,WeatherDisplay:10.37,2013-04-16 19:59:00,
2013-04-16 16:04:00,73.8,60.4,30.17,ESE,122,3.5,3.5,63,0.00,,,0.00,WeatherDisplay:10.37,2013-04-16 20:04:00,
2013-04-16 16:09:00,75.0,61.1,30.17,ESE,123,6.0,6.0,62,0.00,,,0.00,WeatherDisplay:10.37,2013-04-16 20:09:00,
2013-04-16 16:15:00,74.7,61.3,30.16,SSE,161,8.1,8.1,63,0.00,,,0.00,WeatherDisplay:10.37,2013-04-16 20:15:00,
2013-04-16 16:20:00,74.7,62.6,30.16,ESE,105,9.0,9.0,66,0.00,,,0.00,WeatherDisplay:10.37,2013-04-16 20:20:00,
2013-04-16 16:25:00,74.2,61.2,30.16,ESE,119,5.8,5.8,64,0.00,,,0.00,WeatherDisplay:10.37,2013-04-16 20:25:00,
2013-04-16 16:30:00,74.5,62.0,30.16,ESE,120,4.0,4.0,65,0.00,,,0.00,WeatherDisplay:10.37,2013-04-16 20:30:00,
2013-04-16 16:35:00,74.7,59.4,30.16,SSE,148,5.8,5.8,59,0.00,,,0.00,WeatherDisplay:10.37,2013-04-16 20:35:00,
2013-04-16 16:40:00,75.1,61.2,30.16,SW,217,5.8,5.8,62,0.00,,,0.00,WeatherDisplay:10.37,2013-04-16 20:40:00,
2013-04-16 16:46:00,75.1,62.5,30.15,SE,140,4.6,4.6,65,0.00,,,0.00,WeatherDisplay:10.37,2013-04-16 20:46:00,
2013-04-16 16:51:00,75.0,61.1,30.15,ESE,117,6.9,6.9,62,0.00,,,0.00,WeatherDisplay:10.37,2013-04-16 20:51:00,
2013-04-16 16:56:00,75.0,59.7,30.15,SE,132,9.2,9.2,59,0.00,,,0.00,WeatherDisplay:10.37,2013-04-16 20:56:00,
2013-04-16 17:01:00,75.0,59.2,30.15,SSW,209,3.5,3.5,58,0.00,,,0.00,WeatherDisplay:10.37,2013-04-16 21:01:00,
2013-04-16 17:06:00,75.1,58.8,30.15,South,183,5.0,5.0,57,0.00,,,0.00,WeatherDisplay:10.37,2013-04-16 21:06:00,
2013-04-16 17:11:00,75.1,56.3,30.15,SSW,209,4.6,4.6,52,0.00,,,0.00,WeatherDisplay:10.37,2013-04-16 21:11:00,
2013-04-16 17:16:00,74.9,57.6,30.15,SSW,203,3.5,3.5,55,0.00,,,0.00,WeatherDisplay:10.37,2013-04-16 21:16:00,
2013-04-16 17:21:00,74.9,56.6,30.16,SSW,200,5.8,5.8,53,0.00,,,0.00,WeatherDisplay:10.37,2013-04-16 21:21:00,
2013-04-16 17:26:00,75.0,59.2,30.15,South,182,4.0,4.0,58,0.00,,,0.00,WeatherDisplay:10.37,2013-04-16 21:26:00,
2013-04-16 17:31:00,75.3,58.5,30.15,South,188,3.5,3.5,56,0.00,,,0.00,WeatherDisplay:10.37,2013-04-16 21:31:00,
2013-04-16 17:37:00,75.2,58.4,30.15,SSW,207,5.0,5.0,56,0.00,,,0.00,WeatherDisplay:10.37,2013-04-16 21:37:00,
2013-04-16 17:42:00,75.0,56.7,30.16,SSW,200,11.5,11.5,53,0.00,,,0.00,WeatherDisplay:10.37,2013-04-16 21:42:00,
2013-04-16 17:47:00,74.8,57.0,30.16,SW,218,9.2,9.2,54,0.00,,,0.00,WeatherDisplay:10.37,2013-04-16 21:47:00,
2013-04-16 17:52:00,74.7,57.5,30.15,SW,236,6.9,6.9,55,0.00,,,0.00,WeatherDisplay:10.37,2013-04-16 21:52:00,
2013-04-16 17:57:00,74.8,57.0,30.15,SW,230,7.0,7.0,54,0.00,,,0.00,WeatherDisplay:10.37,2013-04-16 21:57:00,
2013-04-16 18:02:00,74.9,57.6,30.15,ESE,113,6.0,6.0,55,0.00,,,0.00,WeatherDisplay:10.37,2013-04-16 22:02:00,
2013-04-16 18:07:00,74.7,58.0,30.15,SSW,206,6.0,6.0,56,0.00,,,0.00,WeatherDisplay:10.37,2013-04-16 22:07:00,
2013-04-16 18:12:00,74.6,58.4,30.15,SSW,207,7.0,7.0,57,0.00,,,0.00,WeatherDisplay:10.37,2013-04-16 22:12:00,
2013-04-16 18:17:00,74.4,58.2,30.15,SW,215,1.2,1.2,57,0.00,,,0.00,WeatherDisplay:10.37,2013-04-16 22:17:00,
2013-04-16 18:22:00,74.4,59.1,30.15,SW,217,1.2,1.2,59,0.00,,,0.00,WeatherDisplay:10.37,2013-04-16 22:22:00,
2013-04-16 18:27:00,74.2,58.5,30.15,SSW,213,6.0,6.0,58,0.00,,,0.00,WeatherDisplay:10.37,2013-04-16 22:27:00,
2013-04-16 18:32:00,74.1,57.9,30.15,SSW,213,5.0,5.0,57,0.00,,,0.00,WeatherDisplay:10.37,2013-04-16 22:32:00,
2013-04-16 18:37:00,74.0,58.3,30.15,SE,145,3.5,3.5,58,0.00,,,0.00,WeatherDisplay:10.37,2013-04-16 22:37:00,
2013-04-16 18:42:00,73.7,57.0,30.15,South,186,3.5,3.5,56,0.00,,,0.00,WeatherDisplay:10.37,2013-04-16 22:42:00,
2013-04-16 18:47:00,73.3,57.6,30.15,South,186,1.2,1.2,58,0.00,,,0.00,WeatherDisplay:10.37,2013-04-16 22:47:00,
2013-04-16 18:52:00,72.9,57.7,30.15,South,187,3.5,3.5,59,0.00,,,0.00,WeatherDisplay:10.37,2013-04-16 22:52:00,
2013-04-16 18:57:00,72.8,59.5,30.15,South,187,2.3,2.3,63,0.00,,,0.00,WeatherDisplay:10.37,2013-04-16 22:57:00,
2013-04-16 19:02:00,71.9,59.1,30.15,South,187,3.5,0.0,64,0.00,,,0.00,WeatherDisplay:10.37,2013-04-16 23:02:00,
2013-04-16 19:07:00,71.8,59.0,30.15,South,187,0.0,0.0,64,0.00,,,0.00,WeatherDisplay:10.37,2013-04-16 23:07:00,
2013-04-16 19:12:00,71.2,60.5,30.15,South,187,0.0,0.0,69,0.00,,,0.00,WeatherDisplay:10.37,2013-04-16 23:12:00,
2013-04-16 19:17:00,70.0,60.2,30.15,South,187,0.0,0.0,71,0.00,,,0.00,WeatherDisplay:10.37,2013-04-16 23:17:00,
2013-04-16 19:22:00,68.9,59.9,30.15,South,187,0.0,0.0,73,0.00,,,0.00,WeatherDisplay:10.37,2013-04-16 23:22:00,
2013-04-16 19:27:00,68.2,60.0,30.15,South,187,0.0,0.0,75,0.00,,,0.00,WeatherDisplay:10.37,2013-04-16 23:27:00,
2013-04-16 19:32:00,67.4,59.9,30.15,South,187,0.0,0.0,77,0.00,,,0.00,WeatherDisplay:10.37,2013-04-16 23:32:00,
2013-04-16 19:37:00,66.5,59.8,30.15,South,187,0.0,0.0,79,0.00,,,0.00,WeatherDisplay:10.37,2013-04-16 23:37:00,
2013-04-16 19:42:00,65.8,59.5,30.15,South,187,0.0,0.0,80,0.00,,,0.00,WeatherDisplay:10.37,2013-04-16 23:42:00,
2013-04-16 19:47:00,65.4,59.4,30.15,South,187,0.0,0.0,81,0.00,,,0.00,WeatherDisplay:10.37,2013-04-16 23:47:00,
2013-04-16 19:52:00,64.7,59.1,30.15,South,187,0.0,0.0,82,0.00,,,0.00,WeatherDisplay:10.37,2013-04-16 23:52:00,
2013-04-16 19:57:00,64.3,59.4,30.15,South,187,0.0,0.0,84,0.00,,,0.00,WeatherDisplay:10.37,2013-04-16 23:57:00,
2013-04-16 20:02:00,63.8,59.2,30.15,South,187,0.0,0.0,85,0.00,,,0.00,WeatherDisplay:10.37,2013-04-17 00:02:00,
2013-04-16 20:07:00,63.2,58.6,30.15,South,187,0.0,0.0,85,0.00,,,0.00,WeatherDisplay:10.37,2013-04-17 00:07:00,
2013-04-16 20:12:00,63.0,58.7,30.15,South,187,0.0,0.0,86,0.00,,,0.00,WeatherDisplay:10.37,2013-04-17 00:12:00,
2013-04-16 20:17:00,62.7,58.5,30.15,South,187,0.0,0.0,86,0.00,,,0.00,WeatherDisplay:10.37,2013-04-17 00:17:00,
2013-04-16 20:22:00,62.3,58.4,30.15,South,187,0.0,0.0,87,0.00,,,0.00,WeatherDisplay:10.37,2013-04-17 00:22:00,
2013-04-16 20:27:00,61.9,58.3,30.15,South,187,0.0,0.0,88,0.00,,,0.00,WeatherDisplay:10.37,2013-04-17 00:27:00,
2013-04-16 20:32:00,61.7,58.4,30.16,South,187,0.0,0.0,89,0.00,,,0.00,WeatherDisplay:10.37,2013-04-17 00:32:00,
2013-04-16 20:37:00,61.6,58.3,30.16,South,187,0.0,0.0,89,0.00,,,0.00,WeatherDisplay:10.37,2013-04-17 00:37:00,
2013-04-16 20:42:00,61.3,58.0,30.15,South,187,0.0,0.0,89,0.00,,,0.00,WeatherDisplay:10.37,2013-04-17 00:42:00,
2013-04-16 20:47:00,61.1,58.5,30.15,South,187,0.0,0.0,91,0.00,,,0.00,WeatherDisplay:10.37,2013-04-17 00:47:00,
2013-04-16 20:52:00,60.9,58.3,30.15,South,187,0.0,0.0,91,0.00,,,0.00,WeatherDisplay:10.37,2013-04-17 00:52:00,
2013-04-16 20:57:00,60.7,58.1,30.16,South,187,0.0,0.0,91,0.00,,,0.00,WeatherDisplay:10.37,2013-04-17 00:57:00,
2013-04-16 21:02:00,60.3,57.7,30.16,South,187,0.0,0.0,91,0.00,,,0.00,WeatherDisplay:10.37,2013-04-17 01:02:00,
2013-04-16 21:07:00,60.1,57.8,30.16,South,187,0.0,0.0,92,0.00,,,0.00,WeatherDisplay:10.37,2013-04-17 01:07:00,
2013-04-16 21:12:00,59.9,57.3,30.16,South,187,0.0,0.0,91,0.00,,,0.00,WeatherDisplay:10.37,2013-04-17 01:12:00,
2013-04-16 21:17:00,59.7,57.4,30.17,South,187,0.0,0.0,92,0.00,,,0.00,WeatherDisplay:10.37,2013-04-17 01:17:00,
2013-04-16 21:22:00,59.7,57.4,30.17,South,187,0.0,0.0,92,0.00,,,0.00,WeatherDisplay:10.37,2013-04-17 01:22:00,
2013-04-16 21:27:00,59.7,57.7,30.17,South,187,0.0,0.0,93,0.00,,,0.00,WeatherDisplay:10.37,2013-04-17 01:27:00,
2013-04-16 21:32:00,59.7,57.7,30.17,South,187,0.0,0.0,93,0.00,,,0.00,WeatherDisplay:10.37,2013-04-17 01:32:00,
2013-04-16 21:37:00,59.6,57.6,30.17,South,187,0.0,0.0,93,0.00,,,0.00,WeatherDisplay:10.37,2013-04-17 01:37:00,
2013-04-16 21:42:00,59.3,57.3,30.17,South,187,0.0,0.0,93,0.00,,,0.00,WeatherDisplay:10.37,2013-04-17 01:42:00,
2013-04-16 21:47:00,58.9,56.9,30.17,South,187,0.0,0.0,93,0.00,,,0.00,WeatherDisplay:10.37,2013-04-17 01:47:00,
2013-04-16 21:52:00,58.7,56.7,30.17,South,187,0.0,0.0,93,0.00,,,0.00,WeatherDisplay:10.37,2013-04-17 01:52:00,
2013-04-16 21:57:00,58.7,57.0,30.17,South,187,0.0,0.0,94,0.00,,,0.00,WeatherDisplay:10.37,2013-04-17 01:57:00,
2013-04-16 22:02:00,58.7,57.0,30.17,South,187,0.0,0.0,94,0.00,,,0.00,WeatherDisplay:10.37,2013-04-17 02:02:00,
2013-04-16 22:08:00,58.5,56.8,30.17,South,187,0.0,0.0,94,0.00,,,0.00,WeatherDisplay:10.37,2013-04-17 02:08:00,
2013-04-16 22:13:00,58.2,56.5,30.17,South,187,0.0,0.0,94,0.00,,,0.00,WeatherDisplay:10.37,2013-04-17 02:13:00,
2013-04-16 22:18:00,58.0,56.3,30.17,South,187,0.0,0.0,94,0.00,,,0.00,WeatherDisplay:10.37,2013-04-17 02:18:00,
2013-04-16 22:23:00,57.9,56.2,30.17,South,187,0.0,0.0,94,0.00,,,0.00,WeatherDisplay:10.37,2013-04-17 02:23:00,
2013-04-16 22:28:00,57.8,56.4,30.17,South,187,0.0,0.0,95,0.00,,,0.00,WeatherDisplay:10.37,2013-04-17 02:28:00,
2013-04-16 22:33:00,57.5,56.1,30.17,South,187,0.0,0.0,95,0.00,,,0.00,WeatherDisplay:10.37,2013-04-17 02:33:00,
2013-04-16 22:38:00,57.4,56.0,30.17,South,187,1.2,0.0,95,0.00,,,0.00,WeatherDisplay:10.37,2013-04-17 02:38:00,
2013-04-16 22:43:00,57.5,56.1,30.17,South,187,0.0,0.0,95,0.00,,,0.00,WeatherDisplay:10.37,2013-04-17 02:43:00,
2013-04-16 22:48:00,57.5,56.1,30.17,South,187,0.0,0.0,95,0.00,,,0.00,WeatherDisplay:10.37,2013-04-17 02:48:00,
2013-04-16 22:53:00,57.4,56.0,30.17,South,187,0.0,0.0,95,0.00,,,0.00,WeatherDisplay:10.37,2013-04-17 02:53:00,
2013-04-16 22:58:00,57.4,56.0,30.17,South,187,0.0,0.0,95,0.00,,,0.00,WeatherDisplay:10.37,2013-04-17 02:58:00,
2013-04-16 23:03:00,57.3,55.9,30.17,South,187,0.0,0.0,95,0.00,,,0.00,WeatherDisplay:10.37,2013-04-17 03:03:00,
2013-04-16 23:08:00,57.3,55.9,30.17,South,187,0.0,0.0,95,0.00,,,0.00,WeatherDisplay:10.37,2013-04-17 03:08:00,
2013-04-16 23:13:00,57.4,56.0,30.17,South,187,0.0,0.0,95,0.00,,,0.00,WeatherDisplay:10.37,2013-04-17 03:13:00,
2013-04-16 23:18:00,57.4,56.0,30.17,South,187,0.0,0.0,95,0.00,,,0.00,WeatherDisplay:10.37,2013-04-17 03:18:00,
2013-04-16 23:23:00,57.4,56.0,30.17,South,187,0.0,0.0,95,0.00,,,0.00,WeatherDisplay:10.37,2013-04-17 03:23:00,
2013-04-16 23:28:00,57.6,56.5,30.17,South,187,0.0,0.0,96,0.00,,,0.00,WeatherDisplay:10.37,2013-04-17 03:28:00,
2013-04-16 23:33:00,57.5,56.4,30.17,South,187,0.0,0.0,96,0.00,,,0.00,WeatherDisplay:10.37,2013-04-17 03:33:00,
2013-04-16 23:38:00,57.3,56.2,30.17,South,187,0.0,0.0,96,0.00,,,0.00,WeatherDisplay:10.37,2013-04-17 03:38:00,
2013-04-16 23:43:00,57.0,55.9,30.17,South,187,0.0,0.0,96,0.00,,,0.00,WeatherDisplay:10.37,2013-04-17 03:43:00,
2013-04-16 23:48:00,56.9,55.8,30.17,South,187,0.0,0.0,96,0.00,,,0.00,WeatherDisplay:10.37,2013-04-17 03:48:00,
2013-04-16 23:53:00,56.8,55.7,30.18,SSE,160,3.5,3.5,96,0.00,,,0.00,WeatherDisplay:10.37,2013-04-17 03:53:00,
2013-04-16 23:58:00,57.8,56.7,30.17,SSE,161,3.5,3.5,96,0.00,,,0.00,WeatherDisplay:10.37,2013-04-17 03:58:00,